sensor_id;sensor_type;location;lat;lon;timestamp;temperature;humidity
43862;DHT22;29510;52.140;5.034;2022-11-15T00:04:13;7.00;99.90
43862;DHT22;29510;52.140;5.034;2022-11-15T00:14:14;7.00;99.90
43862;DHT22;29510;52.140;5.034;2022-11-15T00:24:15;7.00;99.90
43862;DHT22;29510;52.140;5.034;2022-11-15T00:34:16;7.00;99.90
43862;DHT22;29510;52.140;5.034;2022-11-15T00:44:17;7.10;99.90
43862;DHT22;29510;52.140;5.034;2022-11-15T00:54:18;7.10;99.90
43862;DHT22;29510;52.140;5.034;2022-11-15T01:04:19;7.20;99.90
43862;DHT22;29510;52.140;5.034;2022-11-15T01:14:20;7.30;99.90
43862;DHT22;29510;52.140;5.034;2022-11-15T01:24:21;7.40;99.90
43862;DHT22;29510;52.140;5.034;2022-11-15T01:34:22;7.50;99.90
43862;DHT22;29510;52.140;5.034;2022-11-15T01:44:44;7.60;99.90
43862;DHT22;29510;52.140;5.034;2022-11-15T01:54:48;7.80;99.90
43862;DHT22;29510;52.140;5.034;2022-11-15T02:04:51;7.90;99.90
43862;DHT22;29510;52.140;5.034;2022-11-15T02:14:53;7.90;99.90
43862;DHT22;29510;52.140;5.034;2022-11-15T02:35:50;8.20;99.90
43862;DHT22;29510;52.140;5.034;2022-11-15T02:46:00;8.30;99.90
43862;DHT22;29510;52.140;5.034;2022-11-15T02:56:03;8.50;99.90
43862;DHT22;29510;52.140;5.034;2022-11-15T03:06:31;8.70;99.90
43862;DHT22;29510;52.140;5.034;2022-11-15T03:26:50;9.00;99.90
43862;DHT22;29510;52.140;5.034;2022-11-15T03:36:53;9.20;99.90
43862;DHT22;29510;52.140;5.034;2022-11-15T03:57:03;9.30;99.90
43862;DHT22;29510;52.140;5.034;2022-11-15T04:07:04;9.40;99.90
43862;DHT22;29510;52.140;5.034;2022-11-15T04:17:05;9.60;99.90
43862;DHT22;29510;52.140;5.034;2022-11-15T04:27:06;9.70;99.90
43862;DHT22;29510;52.140;5.034;2022-11-15T04:37:07;9.80;99.90
43862;DHT22;29510;52.140;5.034;2022-11-15T04:47:14;9.90;99.90
43862;DHT22;29510;52.140;5.034;2022-11-15T04:57:15;10.00;99.90
43862;DHT22;29510;52.140;5.034;2022-11-15T05:07:16;10.10;99.90
43862;DHT22;29510;52.140;5.034;2022-11-15T05:17:17;10.10;99.90
43862;DHT22;29510;52.140;5.034;2022-11-15T05:27:18;10.30;99.90
43862;DHT22;29510;52.140;5.034;2022-11-15T05:37:19;10.30;99.90
43862;DHT22;29510;52.140;5.034;2022-11-15T05:47:23;10.40;99.90
43862;DHT22;29510;52.140;5.034;2022-11-15T05:57:25;10.40;99.90
43862;DHT22;29510;52.140;5.034;2022-11-15T06:07:26;10.50;99.90
43862;DHT22;29510;52.140;5.034;2022-11-15T06:17:27;10.50;99.90
43862;DHT22;29510;52.140;5.034;2022-11-15T06:27:28;10.50;99.90
43862;DHT22;29510;52.140;5.034;2022-11-15T06:37:29;10.50;99.90
43862;DHT22;29510;52.140;5.034;2022-11-15T06:47:30;10.60;99.90
43862;DHT22;29510;52.140;5.034;2022-11-15T06:57:31;10.60;99.90
43862;DHT22;29510;52.140;5.034;2022-11-15T07:07:33;10.60;99.90
43862;DHT22;29510;52.140;5.034;2022-11-15T07:17:34;10.60;99.90
43862;DHT22;29510;52.140;5.034;2022-11-15T07:27:35;10.40;99.90
43862;DHT22;29510;52.140;5.034;2022-11-15T07:37:36;10.40;99.90
43862;DHT22;29510;52.140;5.034;2022-11-15T07:47:37;10.40;99.90
43862;DHT22;29510;52.140;5.034;2022-11-15T07:57:38;10.40;99.90
43862;DHT22;29510;52.140;5.034;2022-11-15T08:07:39;10.50;99.90
43862;DHT22;29510;52.140;5.034;2022-11-15T08:17:41;10.60;99.90
43862;DHT22;29510;52.140;5.034;2022-11-15T08:27:42;10.60;99.90
43862;DHT22;29510;52.140;5.034;2022-11-15T08:37:43;10.70;99.90
43862;DHT22;29510;52.140;5.034;2022-11-15T08:47:44;10.70;99.90
43862;DHT22;29510;52.140;5.034;2022-11-15T08:57:45;10.90;99.90
43862;DHT22;29510;52.140;5.034;2022-11-15T09:07:46;11.10;99.90
43862;DHT22;29510;52.140;5.034;2022-11-15T09:17:47;11.30;99.90
43862;DHT22;29510;52.140;5.034;2022-11-15T09:27:48;11.40;99.90
43862;DHT22;29510;52.140;5.034;2022-11-15T09:37:49;11.50;99.90
43862;DHT22;29510;52.140;5.034;2022-11-15T09:48:19;11.70;99.90
43862;DHT22;29510;52.140;5.034;2022-11-15T10:08:45;11.80;99.90
43862;DHT22;29510;52.140;5.034;2022-11-15T10:29:05;12.00;99.90
43862;DHT22;29510;52.140;5.034;2022-11-15T10:39:10;12.10;99.90
43862;DHT22;29510;52.140;5.034;2022-11-15T10:49:23;12.50;99.90
43862;DHT22;29510;52.140;5.034;2022-11-15T10:59:31;12.90;99.90
43862;DHT22;29510;52.140;5.034;2022-11-15T11:09:39;13.30;99.90
43862;DHT22;29510;52.140;5.034;2022-11-15T11:20:00;13.80;99.90
43862;DHT22;29510;52.140;5.034;2022-11-15T11:30:20;13.80;99.90
43862;DHT22;29510;52.140;5.034;2022-11-15T11:40:34;13.80;99.90
43862;DHT22;29510;52.140;5.034;2022-11-15T11:50:37;13.70;99.90
43862;DHT22;29510;52.140;5.034;2022-11-15T12:00:43;13.80;99.90
43862;DHT22;29510;52.140;5.034;2022-11-15T12:10:53;13.60;99.90
43862;DHT22;29510;52.140;5.034;2022-11-15T12:20:57;13.70;99.90
43862;DHT22;29510;52.140;5.034;2022-11-15T12:41:14;13.80;99.90
43862;DHT22;29510;52.140;5.034;2022-11-15T12:51:18;14.30;99.90
43862;DHT22;29510;52.140;5.034;2022-11-15T13:11:47;14.50;99.90
43862;DHT22;29510;52.140;5.034;2022-11-15T13:21:49;13.80;99.90
43862;DHT22;29510;52.140;5.034;2022-11-15T13:32:13;13.40;99.90
43862;DHT22;29510;52.140;5.034;2022-11-15T13:42:16;13.30;99.90
43862;DHT22;29510;52.140;5.034;2022-11-15T13:52:17;13.10;99.90
43862;DHT22;29510;52.140;5.034;2022-11-15T14:02:27;12.90;99.90
43862;DHT22;29510;52.140;5.034;2022-11-15T14:12:32;12.80;99.90
43862;DHT22;29510;52.140;5.034;2022-11-15T14:22:33;12.70;99.90
43862;DHT22;29510;52.140;5.034;2022-11-15T14:32:44;12.60;99.90
43862;DHT22;29510;52.140;5.034;2022-11-15T14:42:46;12.50;99.90
43862;DHT22;29510;52.140;5.034;2022-11-15T14:52:48;12.50;99.90
43862;DHT22;29510;52.140;5.034;2022-11-15T15:02:52;12.30;99.90
43862;DHT22;29510;52.140;5.034;2022-11-15T15:12:54;12.30;99.90
43862;DHT22;29510;52.140;5.034;2022-11-15T15:22:55;12.30;99.90
43862;DHT22;29510;52.140;5.034;2022-11-15T15:32:56;12.30;99.90
43862;DHT22;29510;52.140;5.034;2022-11-15T15:42:57;12.30;99.90
43862;DHT22;29510;52.140;5.034;2022-11-15T15:53:00;12.30;99.90
43862;DHT22;29510;52.140;5.034;2022-11-15T16:03:01;12.30;99.90
43862;DHT22;29510;52.140;5.034;2022-11-15T16:13:02;12.30;99.90
43862;DHT22;29510;52.140;5.034;2022-11-15T16:23:06;12.40;99.90
43862;DHT22;29510;52.140;5.034;2022-11-15T16:33:07;12.50;99.90
43862;DHT22;29510;52.140;5.034;2022-11-15T16:43:09;12.50;99.90
43862;DHT22;29510;52.140;5.034;2022-11-15T16:53:10;12.30;99.90
43862;DHT22;29510;52.140;5.034;2022-11-15T17:03:11;12.00;99.90
43862;DHT22;29510;52.140;5.034;2022-11-15T17:13:12;11.70;99.90
43862;DHT22;29510;52.140;5.034;2022-11-15T17:23:13;11.10;99.90
43862;DHT22;29510;52.140;5.034;2022-11-15T17:33:14;10.90;99.90
43862;DHT22;29510;52.140;5.034;2022-11-15T17:43:15;10.80;99.90
43862;DHT22;29510;52.140;5.034;2022-11-15T17:53:16;10.60;99.90
43862;DHT22;29510;52.140;5.034;2022-11-15T18:03:17;10.50;99.90
43862;DHT22;29510;52.140;5.034;2022-11-15T18:13:18;10.60;99.90
43862;DHT22;29510;52.140;5.034;2022-11-15T18:23:19;10.60;99.90
43862;DHT22;29510;52.140;5.034;2022-11-15T18:33:20;10.60;99.90
43862;DHT22;29510;52.140;5.034;2022-11-15T18:43:21;10.60;99.90
43862;DHT22;29510;52.140;5.034;2022-11-15T18:53:22;10.70;99.90
43862;DHT22;29510;52.140;5.034;2022-11-15T19:03:23;10.70;99.90
43862;DHT22;29510;52.140;5.034;2022-11-15T19:13:24;10.80;99.90
43862;DHT22;29510;52.140;5.034;2022-11-15T19:23:25;10.90;99.90
43862;DHT22;29510;52.140;5.034;2022-11-15T19:33:27;11.00;99.90
43862;DHT22;29510;52.140;5.034;2022-11-15T19:43:28;11.10;99.90
43862;DHT22;29510;52.140;5.034;2022-11-15T19:53:29;11.10;99.90
43862;DHT22;29510;52.140;5.034;2022-11-15T20:03:32;11.10;99.90
43862;DHT22;29510;52.140;5.034;2022-11-15T20:13:33;11.10;99.90
43862;DHT22;29510;52.140;5.034;2022-11-15T20:23:34;11.20;99.90
43862;DHT22;29510;52.140;5.034;2022-11-15T20:33:35;11.20;99.90
43862;DHT22;29510;52.140;5.034;2022-11-15T20:43:36;11.20;99.90
43862;DHT22;29510;52.140;5.034;2022-11-15T20:53:37;11.30;99.90
43862;DHT22;29510;52.140;5.034;2022-11-15T21:03:38;11.30;99.90
43862;DHT22;29510;52.140;5.034;2022-11-15T21:13:39;11.40;99.90
43862;DHT22;29510;52.140;5.034;2022-11-15T21:23:40;11.40;99.90
43862;DHT22;29510;52.140;5.034;2022-11-15T21:33:41;11.50;99.90
43862;DHT22;29510;52.140;5.034;2022-11-15T21:43:42;11.50;99.90
43862;DHT22;29510;52.140;5.034;2022-11-15T21:53:43;11.60;99.90
43862;DHT22;29510;52.140;5.034;2022-11-15T22:03:44;11.50;99.90
43862;DHT22;29510;52.140;5.034;2022-11-15T22:13:46;11.60;99.90
43862;DHT22;29510;52.140;5.034;2022-11-15T22:23:48;11.60;99.90
43862;DHT22;29510;52.140;5.034;2022-11-15T22:33:49;11.60;99.90
43862;DHT22;29510;52.140;5.034;2022-11-15T22:43:50;11.70;99.90
43862;DHT22;29510;52.140;5.034;2022-11-15T22:53:51;11.70;99.90
43862;DHT22;29510;52.140;5.034;2022-11-15T23:03:52;11.70;99.90
43862;DHT22;29510;52.140;5.034;2022-11-15T23:13:53;11.70;99.90
43862;DHT22;29510;52.140;5.034;2022-11-15T23:23:54;11.60;99.90
43862;DHT22;29510;52.140;5.034;2022-11-15T23:33:55;11.60;99.90
43862;DHT22;29510;52.140;5.034;2022-11-15T23:43:59;11.60;99.90
43862;DHT22;29510;52.140;5.034;2022-11-15T23:54:00;11.60;99.90
